createdAt,value
2018-11-20T00:02:09.214Z,7.00
2018-11-20T00:05:18.451Z,7.97
2018-11-20T00:08:27.236Z,6.30
2018-11-20T00:11:36.091Z,8.20
2018-11-20T00:14:44.992Z,7.97
2018-11-20T00:17:53.861Z,5.33
2018-11-20T00:21:02.722Z,9.30
2018-11-20T00:24:12.436Z,8.87
2018-11-20T00:27:21.850Z,8.43
2018-11-20T00:30:30.883Z,9.10
2018-11-20T00:33:40.555Z,9.43
2018-11-20T00:36:49.667Z,7.50
2018-11-20T00:39:58.705Z,7.40
2018-11-20T00:43:07.693Z,10.30
2018-11-20T00:46:16.602Z,8.00
2018-11-20T00:49:25.490Z,10.00
2018-11-20T00:52:34.406Z,8.10
2018-11-20T00:56:24.136Z,6.57
2018-11-20T00:59:32.935Z,7.70
2018-11-20T01:02:42.006Z,8.73
2018-11-20T01:05:50.956Z,13.00
2018-11-20T01:09:00.904Z,10.80
2018-11-20T01:12:09.825Z,8.90
2018-11-20T01:15:18.903Z,10.80
2018-11-20T01:18:28.071Z,11.37
2018-11-20T01:21:36.929Z,8.57
2018-11-20T01:24:45.758Z,10.83
2018-11-20T01:27:46.019Z,11.03
2018-11-20T01:30:54.825Z,11.37
2018-11-20T01:34:03.692Z,11.90
2018-11-20T01:37:12.576Z,10.37
2018-11-20T01:40:21.702Z,12.73
2018-11-20T01:43:27.769Z,12.87
2018-11-20T01:46:36.656Z,9.80
2018-11-20T01:49:45.945Z,12.10
2018-11-20T01:52:55.049Z,10.47
2018-11-20T01:56:03.865Z,10.77
2018-11-20T01:59:12.756Z,10.10
2018-11-20T02:02:21.782Z,8.77
2018-11-20T02:05:31.211Z,10.17
2018-11-20T02:08:40.261Z,11.83
2018-11-20T02:11:49.768Z,7.93
2018-11-20T02:14:40.712Z,11.87
2018-11-20T02:18:02.687Z,11.87
2018-11-20T02:21:11.562Z,11.27
2018-11-20T02:24:19.689Z,11.60
2018-11-20T02:27:28.802Z,9.53
2018-11-20T02:30:37.818Z,10.83
2018-11-20T02:33:46.732Z,11.77
2018-11-20T02:36:55.771Z,10.77
2018-11-20T02:40:04.609Z,13.10
2018-11-20T02:43:13.552Z,9.93
2018-11-20T02:46:22.420Z,13.80
2018-11-20T02:49:31.319Z,11.30
2018-11-20T02:52:40.161Z,10.13
2018-11-20T02:55:49.028Z,10.63
2018-11-20T02:58:52.551Z,13.00
2018-11-20T03:02:01.438Z,13.43
2018-11-20T03:04:51.380Z,12.70
2018-11-20T03:07:59.148Z,12.47
2018-11-20T03:11:08.050Z,13.47
2018-11-20T03:14:17.128Z,10.80
2018-11-20T03:17:16.357Z,12.30
2018-11-20T03:20:25.657Z,13.67
2018-11-20T03:23:34.963Z,12.07
2018-11-20T03:26:44.161Z,10.83
2018-11-20T03:30:12.392Z,10.07
2018-11-20T03:33:21.302Z,12.17
2018-11-20T03:36:30.118Z,14.40
2018-11-20T03:39:39.014Z,10.90
2018-11-20T03:42:47.933Z,10.83
2018-11-20T03:45:57.162Z,12.90
2018-11-20T03:49:06.238Z,12.77
2018-11-20T03:52:04.093Z,8.10
2018-11-20T03:55:12.968Z,12.80
2018-11-20T03:58:21.822Z,12.17
2018-11-20T04:01:30.695Z,11.13
2018-11-20T04:04:39.584Z,12.60
2018-11-20T04:07:48.457Z,10.90
2018-11-20T04:10:57.309Z,11.87
2018-11-20T04:14:06.204Z,8.50
2018-11-20T04:17:15.087Z,11.20
2018-11-20T04:20:25.226Z,13.07
2018-11-20T04:23:34.179Z,12.63
2018-11-20T04:26:43.053Z,9.90
2018-11-20T04:29:52.027Z,11.00
2018-11-20T04:33:38.710Z,6.87
2018-11-20T04:36:42.792Z,11.83
2018-11-20T04:39:51.656Z,13.30
2018-11-20T04:43:00.551Z,12.30
2018-11-20T04:46:09.414Z,11.60
2018-11-20T04:49:18.388Z,11.23
2018-11-20T04:52:18.835Z,14.40
2018-11-20T04:55:27.815Z,11.50
2018-11-20T04:58:36.686Z,11.53
2018-11-20T05:01:37.116Z,14.03
2018-11-20T05:04:45.934Z,14.80
2018-11-20T05:07:54.808Z,13.73
2018-11-20T05:11:03.779Z,12.60
2018-11-20T05:14:12.669Z,12.10
2018-11-20T05:17:21.539Z,14.13
2018-11-20T05:20:30.411Z,11.83
2018-11-20T05:23:39.314Z,10.90
2018-11-20T05:26:41.174Z,13.20
2018-11-20T05:29:50.085Z,13.43
2018-11-20T05:32:58.919Z,10.77
2018-11-20T05:36:07.807Z,12.87
2018-11-20T05:39:16.792Z,13.10
2018-11-20T05:42:25.678Z,13.00
2018-11-20T05:45:34.530Z,10.67
2018-11-20T05:48:43.421Z,11.03
2018-11-20T05:51:52.287Z,11.80
2018-11-20T05:55:01.179Z,11.70
2018-11-20T05:58:10.124Z,11.80
2018-11-20T06:01:19.124Z,13.20
2018-11-20T06:04:18.150Z,13.50
2018-11-20T06:07:27.024Z,11.10
2018-11-20T06:10:35.908Z,12.23
2018-11-20T06:13:44.807Z,12.77
2018-11-20T06:16:53.703Z,12.87
2018-11-20T06:20:02.606Z,13.43
2018-11-20T06:26:01.006Z,12.57
2018-11-20T06:28:51.026Z,13.90
2018-11-20T06:32:00.011Z,12.27
2018-11-20T06:35:08.861Z,10.50
2018-11-20T06:38:17.773Z,13.00
2018-11-20T06:41:26.704Z,11.20
2018-11-20T06:44:35.728Z,12.27
2018-11-20T06:47:44.657Z,11.20
2018-11-20T06:50:53.549Z,13.03
2018-11-20T06:54:02.534Z,9.73
2018-11-20T06:57:11.468Z,12.97
2018-11-20T07:00:20.323Z,10.50
2018-11-20T07:03:29.213Z,12.10
2018-11-20T07:06:38.121Z,9.80
2018-11-20T07:09:46.999Z,14.00
2018-11-20T07:12:55.890Z,15.40
2018-11-20T07:16:05.009Z,10.57
2018-11-20T07:19:13.658Z,10.40
2018-11-20T07:22:22.629Z,11.97
2018-11-20T07:25:31.700Z,12.90
2018-11-20T07:28:40.529Z,12.57
2018-11-20T07:31:49.389Z,11.40
2018-11-20T07:34:58.279Z,13.50
2018-11-20T07:38:07.114Z,12.90
2018-11-20T07:41:15.943Z,10.83
2018-11-20T07:44:24.889Z,12.77
2018-11-20T07:47:33.702Z,13.00
2018-11-20T07:50:42.717Z,13.80
2018-11-20T07:53:51.650Z,11.40
2018-11-20T07:57:00.569Z,12.17
2018-11-20T08:00:09.437Z,12.50
2018-11-20T08:03:18.336Z,12.70
2018-11-20T08:06:27.233Z,13.00
2018-11-20T08:09:36.107Z,13.87
2018-11-20T08:12:44.963Z,13.80
2018-11-20T08:15:53.952Z,13.90
2018-11-20T08:18:58.299Z,12.90
2018-11-20T08:22:08.033Z,16.00
2018-11-20T08:25:17.040Z,13.17
2018-11-20T08:28:25.941Z,11.30
2018-11-20T08:31:34.888Z,12.93
2018-11-20T08:34:43.785Z,15.83
2018-11-20T08:37:52.696Z,11.50
2018-11-20T08:40:54.453Z,14.43
2018-11-20T08:44:03.394Z,11.50
2018-11-20T08:47:12.345Z,15.20
2018-11-20T08:50:21.277Z,11.70
2018-11-20T08:53:30.193Z,14.73
2018-11-20T08:56:39.045Z,13.33
2018-11-20T08:59:47.897Z,15.20
2018-11-20T09:02:56.843Z,14.17
2018-11-20T09:06:05.711Z,15.53
2018-11-20T09:09:14.581Z,14.23
2018-11-20T09:12:23.485Z,14.00
2018-11-20T09:15:13.502Z,16.50
2018-11-20T09:18:22.358Z,15.00
2018-11-20T09:21:31.270Z,16.07
2018-11-20T09:24:21.262Z,14.70
2018-11-20T09:27:30.191Z,13.40
2018-11-20T09:30:39.308Z,11.60
2018-11-20T09:36:34.970Z,15.63
2018-11-20T09:39:44.289Z,15.10
2018-11-20T09:42:53.696Z,15.60
2018-11-20T09:46:10.614Z,14.60
2018-11-20T09:49:19.478Z,14.53
2018-11-20T09:52:28.455Z,13.37
2018-11-20T09:55:37.269Z,14.07
2018-11-20T09:58:27.332Z,15.10
2018-11-20T10:01:36.176Z,13.80
2018-11-20T10:04:32.913Z,11.70
2018-11-20T10:07:41.819Z,14.20
2018-11-20T10:10:50.820Z,14.30
2018-11-20T10:14:00.247Z,13.13
2018-11-20T10:17:11.450Z,14.37
2018-11-20T10:20:24.677Z,13.00
2018-11-20T10:23:34.430Z,12.80
2018-11-20T10:26:44.142Z,15.43
2018-11-20T10:29:53.017Z,14.70
2018-11-20T10:33:01.882Z,14.73
2018-11-20T10:36:10.792Z,16.47
2018-11-20T10:39:19.869Z,13.57
2018-11-20T10:42:28.770Z,14.13
2018-11-20T10:48:47.828Z,15.23
2018-11-20T10:51:56.850Z,11.90
2018-11-20T10:55:05.785Z,14.10
2018-11-20T10:58:14.753Z,12.33
2018-11-20T11:01:23.755Z,12.63
2018-11-20T11:04:33.031Z,14.20
2018-11-20T11:07:41.987Z,13.50
2018-11-20T11:10:50.717Z,17.87
2018-11-20T11:13:59.643Z,13.03
2018-11-20T11:17:08.556Z,16.30
2018-11-20T11:20:17.524Z,15.73
2018-11-20T11:23:18.051Z,14.37
2018-11-20T11:26:26.954Z,15.50
2018-11-20T11:29:35.932Z,15.20
2018-11-20T11:32:45.080Z,15.87
2018-11-20T11:35:54.272Z,15.23
2018-11-20T11:39:03.191Z,16.77
2018-11-20T11:42:12.249Z,14.73
2018-11-20T11:45:21.218Z,15.03
2018-11-20T11:48:30.208Z,15.23
2018-11-20T11:51:39.109Z,16.13
2018-11-20T11:54:48.024Z,13.30
2018-11-20T11:57:57.168Z,13.93
2018-11-20T12:01:06.194Z,15.27
2018-11-20T12:04:15.055Z,13.07
2018-11-20T12:07:23.976Z,16.57
2018-11-20T12:10:36.312Z,12.70
2018-11-20T12:13:42.248Z,16.50
2018-11-20T12:16:51.289Z,15.60
2018-11-20T12:20:00.597Z,16.63
2018-11-20T12:23:09.501Z,15.13
2018-11-20T12:26:18.415Z,14.77
2018-11-20T12:29:27.339Z,16.83
2018-11-20T12:32:36.365Z,13.63
2018-11-20T12:35:45.339Z,14.53
2018-11-20T12:38:54.302Z,15.00
2018-11-20T12:42:04.887Z,17.47
2018-11-20T12:45:13.554Z,15.47
2018-11-20T12:48:22.366Z,15.70
2018-11-20T12:51:30.023Z,16.57
2018-11-20T12:54:38.991Z,18.33
2018-11-20T12:57:47.938Z,16.07
2018-11-20T13:00:56.910Z,16.70
2018-11-20T13:04:05.991Z,16.03
2018-11-20T13:07:14.970Z,16.97
2018-11-20T13:10:24.114Z,15.90
2018-11-20T13:13:33.167Z,17.10
2018-11-20T13:16:41.280Z,18.77
2018-11-20T13:19:50.594Z,18.07
2018-11-20T13:22:59.568Z,19.03
2018-11-20T13:26:08.451Z,18.20
2018-11-20T13:29:17.392Z,15.80
2018-11-20T13:32:26.490Z,17.03
2018-11-20T13:38:24.967Z,15.87
2018-11-20T13:41:42.962Z,18.93
2018-11-20T13:44:54.846Z,16.83
2018-11-20T13:48:03.894Z,17.67
2018-11-20T13:51:12.898Z,13.97
2018-11-20T13:54:22.357Z,17.03
2018-11-20T13:57:31.521Z,16.60
2018-11-20T14:00:42.500Z,17.77
2018-11-20T14:03:54.488Z,17.20
2018-11-20T14:07:03.511Z,15.67
2018-11-20T14:10:13.841Z,18.17
2018-11-20T14:13:22.804Z,17.90
2018-11-20T14:16:32.067Z,16.17
2018-11-20T14:19:40.972Z,15.07
2018-11-20T14:22:49.860Z,15.40
2018-11-20T14:25:58.904Z,18.27
2018-11-20T14:29:07.832Z,15.50
2018-11-20T14:32:16.785Z,11.57
2018-11-20T14:35:25.883Z,14.17
2018-11-20T14:38:34.793Z,13.90
2018-11-20T14:41:33.074Z,11.60
2018-11-20T14:44:31.402Z,14.00
2018-11-20T14:47:40.368Z,13.43
2018-11-20T14:50:49.230Z,11.60
2018-11-20T14:53:58.121Z,12.40
2018-11-20T14:57:00.152Z,11.53
2018-11-20T15:00:09.126Z,14.40
2018-11-20T15:03:17.975Z,14.87
2018-11-20T15:06:26.925Z,13.60
2018-11-20T15:09:35.855Z,14.50
2018-11-20T15:12:34.239Z,16.03
2018-11-20T15:15:45.080Z,14.83
2018-11-20T15:18:54.038Z,10.37
2018-11-20T15:22:21.831Z,12.43
2018-11-20T15:25:30.249Z,9.83
2018-11-20T15:28:39.129Z,13.30
2018-11-20T15:31:48.027Z,12.60
2018-11-20T15:34:46.346Z,14.10
2018-11-20T15:37:55.414Z,11.20
2018-11-20T15:41:04.298Z,13.00
2018-11-20T15:44:13.205Z,9.77
2018-11-20T15:47:22.054Z,13.23
2018-11-20T15:50:31.030Z,11.80
2018-11-20T15:53:39.917Z,13.47
2018-11-20T15:56:48.777Z,13.10
2018-11-20T15:59:57.725Z,13.03
2018-11-20T16:02:47.681Z,13.00
2018-11-20T16:05:56.543Z,13.47
2018-11-20T16:08:57.233Z,11.90
2018-11-20T16:12:06.090Z,13.97
2018-11-20T16:15:15.091Z,12.70
2018-11-20T16:18:24.058Z,10.03
2018-11-20T16:21:33.046Z,11.83
2018-11-20T16:24:42.139Z,12.90
2018-11-20T16:27:51.069Z,12.60
2018-11-20T16:30:59.988Z,13.63
2018-11-20T16:34:08.894Z,15.10
2018-11-20T16:37:17.820Z,14.80
2018-11-20T16:40:27.657Z,13.57
2018-11-20T16:43:36.588Z,13.20
2018-11-20T16:46:45.506Z,16.93
2018-11-20T16:49:54.448Z,15.33
2018-11-20T16:53:03.350Z,16.77
2018-11-20T16:56:12.285Z,15.70
2018-11-20T16:59:21.242Z,13.90
2018-11-20T17:02:30.119Z,17.00
2018-11-20T17:05:39.088Z,16.43
2018-11-20T17:08:47.957Z,15.77
2018-11-20T17:11:56.974Z,16.07
2018-11-20T17:15:05.913Z,17.00
2018-11-20T17:18:04.387Z,17.93
2018-11-20T17:21:13.331Z,14.60
2018-11-20T17:24:22.239Z,18.93
2018-11-20T17:27:31.329Z,15.97
2018-11-20T17:30:42.543Z,18.17
2018-11-20T17:33:51.451Z,19.30
2018-11-20T17:37:00.403Z,18.73
2018-11-20T17:40:09.369Z,20.37
2018-11-20T17:43:18.270Z,18.13
2018-11-20T17:46:27.398Z,19.53
2018-11-20T17:49:36.285Z,18.10
2018-11-20T17:52:45.208Z,18.33
2018-11-20T17:55:54.154Z,18.23
2018-11-20T17:59:03.151Z,17.87
2018-11-20T18:02:12.061Z,19.70
2018-11-20T18:05:21.004Z,19.17
2018-11-20T18:08:29.895Z,15.37
2018-11-20T18:11:38.830Z,19.43
2018-11-20T18:14:47.709Z,15.63
2018-11-20T18:17:56.729Z,15.97
2018-11-20T18:20:58.020Z,17.00
2018-11-20T18:24:06.916Z,18.13
2018-11-20T18:27:19.053Z,15.10
2018-11-20T18:30:22.580Z,17.90
2018-11-20T18:33:31.637Z,16.87
2018-11-20T18:36:40.503Z,15.03
2018-11-20T18:39:49.458Z,16.60
2018-11-20T18:42:39.493Z,16.40
2018-11-20T18:45:48.443Z,13.60
2018-11-20T18:48:57.403Z,14.10
2018-11-20T18:52:06.760Z,19.40
2018-11-20T18:55:15.752Z,16.43
2018-11-20T18:58:24.882Z,14.03
2018-11-20T19:01:33.903Z,15.53
2018-11-20T19:04:42.828Z,13.90
2018-11-20T19:07:51.842Z,14.47
2018-11-20T19:11:00.764Z,15.87
2018-11-20T19:14:10.006Z,16.67
2018-11-20T19:17:18.935Z,18.70
2018-11-20T19:20:27.903Z,13.90
2018-11-20T19:23:36.838Z,13.73
2018-11-20T19:26:46.404Z,15.40
2018-11-20T19:29:55.337Z,18.23
2018-11-20T19:33:04.296Z,15.23
2018-11-20T19:36:13.237Z,16.93
2018-11-20T19:39:22.664Z,16.33
2018-11-20T19:42:31.675Z,16.60
2018-11-20T19:45:40.595Z,15.23
2018-11-20T19:48:49.572Z,13.37
2018-11-20T19:52:00.995Z,14.40
2018-11-20T19:55:07.669Z,15.33
2018-11-20T19:58:16.577Z,15.47
2018-11-20T20:01:25.873Z,14.90
2018-11-20T20:04:34.869Z,14.60
2018-11-20T20:07:36.313Z,14.77
2018-11-20T20:10:45.290Z,14.97
2018-11-20T20:13:54.193Z,15.70
2018-11-20T20:17:03.140Z,15.87
2018-11-20T20:20:12.159Z,13.97
2018-11-20T20:23:21.064Z,15.70
2018-11-20T20:26:29.967Z,16.70
2018-11-20T20:29:38.940Z,16.10
2018-11-20T20:32:47.798Z,15.97
2018-11-20T20:35:56.692Z,19.20
2018-11-20T20:39:05.584Z,14.50
2018-11-20T20:42:14.682Z,16.27
2018-11-20T20:45:24.540Z,14.53
2018-11-20T20:48:35.853Z,15.57
2018-11-20T20:51:42.412Z,17.10
2018-11-20T20:54:51.370Z,16.20
2018-11-20T20:58:00.280Z,15.37
2018-11-20T21:01:09.223Z,17.30
2018-11-20T21:04:18.950Z,16.20
2018-11-20T21:07:27.805Z,16.63
2018-11-20T21:10:27.052Z,17.80
2018-11-20T21:13:36.118Z,16.23
2018-11-20T21:16:45.055Z,18.27
2018-11-20T21:19:53.867Z,17.47
2018-11-20T21:23:02.738Z,17.17
2018-11-20T21:26:11.592Z,17.70
2018-11-20T21:29:20.496Z,16.83
2018-11-20T21:32:29.360Z,20.37
2018-11-20T21:35:38.459Z,17.27
2018-11-20T21:38:47.355Z,18.40
2018-11-20T21:41:56.422Z,19.80
2018-11-20T21:45:05.317Z,20.80
2018-11-20T21:48:02.824Z,21.70
2018-11-20T21:51:11.919Z,18.27
2018-11-20T21:54:20.782Z,19.43
2018-11-20T21:57:29.923Z,19.53
2018-11-20T22:00:59.849Z,19.10
2018-11-20T22:04:08.731Z,19.37
2018-11-20T22:07:17.618Z,23.50
2018-11-20T22:10:27.088Z,20.47
2018-11-20T22:13:35.977Z,19.47
2018-11-20T22:16:44.855Z,20.33
2018-11-20T22:19:53.752Z,21.03
2018-11-20T22:23:02.663Z,20.97
2018-11-20T22:26:11.498Z,23.10
2018-11-20T22:29:20.391Z,22.20
2018-11-20T22:32:29.495Z,21.37
2018-11-20T22:35:38.362Z,23.03
2018-11-20T22:38:47.210Z,20.83
2018-11-20T22:41:56.086Z,20.27
2018-11-20T22:45:04.955Z,21.20
2018-11-20T22:48:13.801Z,21.50
2018-11-20T22:51:22.707Z,19.43
2018-11-20T22:54:31.560Z,20.70
2018-11-20T22:57:40.468Z,20.03
2018-11-20T23:00:49.352Z,21.10
2018-11-20T23:03:58.232Z,23.00
2018-11-20T23:07:07.096Z,18.30
2018-11-20T23:10:16.189Z,19.60
2018-11-20T23:13:06.622Z,23.10
2018-11-20T23:16:17.350Z,19.70
2018-11-20T23:21:58.760Z,18.10
2018-11-20T23:24:49.146Z,22.17
2018-11-20T23:27:58.031Z,21.40
2018-11-20T23:30:48.495Z,24.37
2018-11-20T23:33:38.939Z,19.00
2018-11-20T23:36:29.350Z,23.50
2018-11-20T23:39:19.725Z,19.50
2018-11-20T23:42:10.145Z,20.90
2018-11-20T23:45:00.558Z,21.80
2018-11-20T23:47:50.975Z,21.10
2018-11-20T23:50:41.355Z,20.70
2018-11-20T23:53:50.280Z,16.77
2018-11-20T23:56:40.658Z,20.37
2018-11-20T23:59:31.101Z,20.37
